createdAt,value
2019-05-21T00:02:45.122Z,95283.63
2019-05-21T00:06:47.048Z,95281.30
2019-05-21T00:10:48.942Z,95286.67
2019-05-21T00:14:50.872Z,95286.59
2019-05-21T00:18:52.861Z,95287.09
2019-05-21T00:22:54.789Z,95280.08
2019-05-21T00:26:56.697Z,95286.44
2019-05-21T00:31:52.714Z,95280.14
2019-05-21T00:36:49.706Z,95282.80
2019-05-21T00:41:45.558Z,95283.95
2019-05-21T00:45:47.460Z,95280.41
2019-05-21T00:49:52.004Z,95285.82
2019-05-21T00:53:53.931Z,95287.62
2019-05-21T00:57:55.830Z,95288.95
2019-05-21T01:01:57.743Z,95283.13
2019-05-21T01:05:59.723Z,95290.13
2019-05-21T01:10:01.638Z,95271.41
2019-05-21T01:14:03.532Z,95284.49
2019-05-21T01:18:05.469Z,95291.76
2019-05-21T01:22:07.359Z,95294.09
2019-05-21T01:26:09.271Z,95294.89
2019-05-21T01:30:11.591Z,95297.58
2019-05-21T01:34:15.327Z,95300.24
2019-05-21T01:38:17.285Z,95296.05
2019-05-21T01:42:19.195Z,95299.53
2019-05-21T01:46:21.130Z,95302.19
2019-05-21T01:50:23.005Z,95295.84
2019-05-21T01:54:24.934Z,95296.13
2019-05-21T01:58:27.166Z,95291.88
2019-05-21T02:02:29.084Z,95293.20
2019-05-21T02:06:31.000Z,95297.08
2019-05-21T02:10:32.901Z,95291.05
2019-05-21T02:14:35.112Z,95290.52
2019-05-21T02:18:37.007Z,95289.22
2019-05-21T02:22:38.960Z,95291.67
2019-05-21T02:26:40.873Z,95296.66
2019-05-21T02:30:45.582Z,95228.85
2019-05-21T02:34:47.488Z,95300.86
2019-05-21T02:38:49.391Z,95301.66
2019-05-21T02:42:51.395Z,95305.67
2019-05-21T02:46:53.405Z,95306.77
2019-05-21T02:50:55.383Z,95305.67
2019-05-21T02:54:57.286Z,95316.52
2019-05-21T02:58:59.200Z,95312.32
2019-05-21T03:03:05.424Z,95306.27
2019-05-21T03:07:19.200Z,95307.53
2019-05-21T03:11:21.106Z,95302.96
2019-05-21T03:15:23.054Z,95306.77
2019-05-21T03:19:24.968Z,95311.81
2019-05-21T03:23:26.932Z,95307.35
2019-05-21T03:27:28.858Z,95317.12
2019-05-21T03:31:31.034Z,95311.52
2019-05-21T03:35:32.951Z,95311.50
2019-05-21T03:39:34.860Z,95241.16
2019-05-21T03:43:36.773Z,95313.70
2019-05-21T03:47:38.685Z,95316.97
2019-05-21T03:51:40.609Z,95315.88
2019-05-21T03:55:42.525Z,95314.31
2019-05-21T03:59:44.512Z,95324.39
2019-05-21T04:03:46.477Z,95324.34
2019-05-21T04:07:49.375Z,95322.63
2019-05-21T04:11:53.286Z,95329.84
2019-05-21T04:15:59.439Z,95332.74
2019-05-21T04:20:02.336Z,95332.71
2019-05-21T04:24:08.487Z,95334.31
2019-05-21T04:28:08.019Z,95330.00
2019-05-21T04:32:10.213Z,95330.31
2019-05-21T04:36:12.768Z,95339.62
2019-05-21T04:40:15.404Z,95341.25
2019-05-21T04:44:17.307Z,95340.48
2019-05-21T04:48:19.299Z,95346.41
2019-05-21T04:52:21.207Z,95347.23
2019-05-21T04:56:23.102Z,95355.95
2019-05-21T05:00:25.074Z,95355.98
2019-05-21T05:04:26.971Z,95357.91
2019-05-21T05:08:28.878Z,95358.23
2019-05-21T05:12:30.772Z,95356.41
2019-05-21T05:16:32.684Z,95358.17
2019-05-21T05:20:34.651Z,95366.18
2019-05-21T05:24:37.202Z,95368.20
2019-05-21T05:28:39.239Z,95375.09
2019-05-21T05:32:41.332Z,95374.80
2019-05-21T05:36:43.252Z,95382.78
2019-05-21T05:40:45.141Z,95380.71
2019-05-21T05:44:47.732Z,95380.73
2019-05-21T05:48:51.373Z,95387.10
2019-05-21T05:52:53.272Z,95395.03
2019-05-21T05:56:55.199Z,95399.32
2019-05-21T06:00:57.199Z,95409.38
2019-05-21T06:04:59.149Z,95415.57
2019-05-21T06:09:01.570Z,95416.37
2019-05-21T06:13:05.036Z,95416.69
2019-05-21T06:17:07.267Z,95417.98
2019-05-21T06:21:09.245Z,95421.16
2019-05-21T06:25:12.078Z,95423.62
2019-05-21T06:29:13.988Z,95425.97
2019-05-21T06:33:15.915Z,95423.48
2019-05-21T06:37:17.840Z,95427.23
2019-05-21T06:41:19.757Z,95432.55
2019-05-21T06:45:23.243Z,95440.45
2019-05-21T06:49:25.254Z,95444.73
2019-05-21T06:53:27.980Z,95441.73
2019-05-21T06:57:29.935Z,95447.30
2019-05-21T07:01:31.893Z,95454.48
2019-05-21T07:05:33.849Z,95466.78
2019-05-21T07:09:35.746Z,95468.38
2019-05-21T07:13:37.659Z,95473.13
2019-05-21T07:17:39.561Z,95474.47
2019-05-21T07:21:41.501Z,95477.95
2019-05-21T07:25:43.478Z,95494.33
2019-05-21T07:29:45.392Z,95495.08
2019-05-21T07:33:47.306Z,95489.23
2019-05-21T07:37:49.216Z,95497.45
2019-05-21T07:41:51.121Z,95494.48
2019-05-21T07:45:53.688Z,95500.84
2019-05-21T07:49:55.611Z,95508.61
2019-05-21T07:53:57.530Z,95516.00
2019-05-21T07:57:59.456Z,95524.83
2019-05-21T08:02:01.442Z,95518.00
2019-05-21T08:06:03.385Z,95520.03
2019-05-21T08:10:08.276Z,95515.22
2019-05-21T08:14:11.423Z,95524.70
2019-05-21T08:18:13.319Z,95517.69
2019-05-21T08:22:15.233Z,95523.78
2019-05-21T08:26:17.160Z,95526.94
2019-05-21T08:30:19.678Z,95537.24
2019-05-21T08:34:21.602Z,95528.28
2019-05-21T08:38:23.506Z,95534.68
2019-05-21T08:42:25.499Z,95543.27
2019-05-21T08:46:27.575Z,95545.48
2019-05-21T08:50:29.482Z,95546.84
2019-05-21T08:54:49.364Z,95555.04
2019-05-21T08:58:51.351Z,95566.15
2019-05-21T09:02:53.252Z,95572.16
2019-05-21T09:06:55.249Z,95571.16
2019-05-21T09:10:57.157Z,95581.53
2019-05-21T09:14:59.165Z,95583.74
2019-05-21T09:19:01.397Z,95589.61
2019-05-21T09:23:03.299Z,95583.16
2019-05-21T09:27:05.339Z,95594.84
2019-05-21T09:31:07.243Z,95597.98
2019-05-21T09:35:10.960Z,95593.46
2019-05-21T09:39:12.874Z,95593.70
2019-05-21T09:43:14.808Z,95593.25
2019-05-21T09:47:16.715Z,95591.75
2019-05-21T09:51:20.050Z,95592.52
2019-05-21T09:55:22.358Z,95605.69
2019-05-21T09:59:33.196Z,95612.97
2019-05-21T10:03:39.409Z,95605.73
2019-05-21T10:07:41.318Z,95611.67
2019-05-21T10:11:43.226Z,95616.11
2019-05-21T10:15:45.152Z,95615.56
2019-05-21T10:19:47.167Z,95619.78
2019-05-21T10:23:49.563Z,95625.81
2019-05-21T10:27:51.460Z,95635.52
2019-05-21T10:31:53.952Z,95635.88
2019-05-21T10:35:57.374Z,95645.91
2019-05-21T10:39:59.300Z,95642.63
2019-05-21T10:44:01.427Z,95651.39
2019-05-21T10:48:03.388Z,95655.63
2019-05-21T10:52:05.690Z,95651.13
2019-05-21T10:56:07.573Z,95656.83
2019-05-21T11:00:16.955Z,95655.94
2019-05-21T11:04:20.509Z,95658.80
2019-05-21T11:08:24.400Z,95663.67
2019-05-21T11:12:26.354Z,95675.84
2019-05-21T11:16:28.324Z,95673.27
2019-05-21T11:20:30.251Z,95677.68
2019-05-21T11:24:32.142Z,95683.67
2019-05-21T11:28:34.071Z,95682.02
2019-05-21T11:32:36.043Z,95682.10
2019-05-21T11:36:37.969Z,95688.81
2019-05-21T11:40:39.936Z,95691.38
2019-05-21T11:44:41.867Z,95693.30
2019-05-21T11:48:43.778Z,95698.91
2019-05-21T11:52:45.859Z,95698.78
2019-05-21T11:56:47.766Z,95707.31
2019-05-21T12:00:49.944Z,95713.42
2019-05-21T12:04:51.847Z,95717.09
2019-05-21T12:08:56.995Z,95726.93
2019-05-21T12:12:57.454Z,95724.86
2019-05-21T12:16:59.371Z,95726.36
2019-05-21T12:21:01.646Z,95730.42
2019-05-21T12:25:03.851Z,95730.28
2019-05-21T12:29:05.821Z,95735.63
2019-05-21T12:33:07.731Z,95737.04
2019-05-21T12:37:09.737Z,95738.73
2019-05-21T12:41:13.783Z,95742.34
2019-05-21T12:45:15.328Z,95748.36
2019-05-21T12:49:17.238Z,95746.66
2019-05-21T12:53:19.178Z,95755.90
2019-05-21T12:57:21.093Z,95764.95
2019-05-21T13:01:23.073Z,95764.46
2019-05-21T13:05:25.100Z,95765.09
2019-05-21T13:09:32.594Z,95757.48
2019-05-21T13:13:30.671Z,95768.09
2019-05-21T13:17:32.583Z,95763.53
2019-05-21T13:21:34.501Z,95764.73
2019-05-21T13:25:37.449Z,95761.78
2019-05-21T13:29:39.388Z,95764.55
2019-05-21T13:33:41.287Z,95771.94
2019-05-21T13:37:43.242Z,95777.29
2019-05-21T13:41:46.095Z,95782.18
2019-05-21T13:45:48.007Z,95777.70
2019-05-21T13:49:49.925Z,95785.06
2019-05-21T13:53:51.959Z,95793.87
2019-05-21T13:57:54.038Z,95798.48
2019-05-21T14:01:55.963Z,95804.47
2019-05-21T14:05:57.848Z,95804.97
2019-05-21T14:10:14.203Z,95809.75
2019-05-21T14:14:03.402Z,95808.27
2019-05-21T14:18:05.384Z,95815.38
2019-05-21T14:22:07.960Z,95820.02
2019-05-21T14:26:09.934Z,95827.45
2019-05-21T14:30:12.881Z,95823.58
2019-05-21T14:34:14.814Z,95833.03
2019-05-21T14:38:16.747Z,95829.17
2019-05-21T14:42:18.667Z,95840.20
2019-05-21T14:46:20.568Z,95844.19
2019-05-21T14:50:22.789Z,95842.54
2019-05-21T14:54:27.015Z,95843.08
2019-05-21T14:58:28.303Z,95847.34
2019-05-21T15:02:30.243Z,95853.59
2019-05-21T15:06:32.170Z,95854.43
2019-05-21T15:10:47.162Z,95858.91
2019-05-21T15:14:38.112Z,95862.84
2019-05-21T15:18:39.968Z,95866.44
2019-05-21T15:22:41.935Z,95870.33
2019-05-21T15:26:43.840Z,95879.08
2019-05-21T15:30:46.534Z,95875.72
2019-05-21T15:34:48.438Z,95882.10
2019-05-21T15:38:51.282Z,95881.31
2019-05-21T15:42:53.853Z,95885.05
2019-05-21T15:46:55.949Z,95892.74
2019-05-21T15:50:57.854Z,95898.92
2019-05-21T15:54:59.889Z,95832.91
2019-05-21T15:59:01.812Z,95900.89
2019-05-21T16:03:03.712Z,95900.87
2019-05-21T16:07:05.870Z,95908.73
2019-05-21T16:11:08.175Z,95923.16
2019-05-21T16:15:10.236Z,95925.47
2019-05-21T16:19:12.132Z,95924.08
2019-05-21T16:23:14.125Z,95924.25
2019-05-21T16:27:16.034Z,95928.28
2019-05-21T16:31:18.014Z,95935.64
2019-05-21T16:35:20.015Z,95943.02
2019-05-21T16:39:23.188Z,95941.71
2019-05-21T16:43:25.170Z,95946.50
2019-05-21T16:47:42.411Z,95943.28
2019-05-21T16:51:30.945Z,95948.64
2019-05-21T16:55:34.996Z,95943.54
2019-05-21T16:59:36.984Z,95939.19
2019-05-21T17:03:39.869Z,95943.52
2019-05-21T17:07:41.766Z,95958.22
2019-05-21T17:11:57.570Z,95960.36
2019-05-21T17:15:47.533Z,95967.43
2019-05-21T17:19:49.478Z,95972.83
2019-05-21T17:23:51.414Z,95981.73
2019-05-21T17:27:53.467Z,95984.91
2019-05-21T17:31:55.404Z,95988.80
2019-05-21T17:35:57.420Z,95997.66
2019-05-21T17:39:59.327Z,96006.23
2019-05-21T17:44:01.454Z,96011.02
2019-05-21T17:48:03.611Z,96015.88
2019-05-21T17:52:05.687Z,96016.63
2019-05-21T17:56:07.942Z,96026.81
2019-05-21T18:00:11.878Z,96027.85
2019-05-21T18:04:14.222Z,96026.86
2019-05-21T18:08:17.204Z,96031.36
2019-05-21T18:12:31.554Z,96030.82
2019-05-21T18:16:24.627Z,96038.88
2019-05-21T18:20:27.194Z,96038.39
2019-05-21T18:24:29.676Z,96040.30
2019-05-21T18:28:31.856Z,96047.20
2019-05-21T18:32:34.053Z,96060.33
2019-05-21T18:36:36.220Z,96059.80
2019-05-21T18:40:38.325Z,96071.25
2019-05-21T18:44:40.514Z,96075.28
2019-05-21T18:48:42.972Z,96089.13
2019-05-21T18:52:44.889Z,96092.38
2019-05-21T18:56:46.857Z,96104.07
2019-05-21T19:00:49.040Z,96104.87
2019-05-21T19:04:51.001Z,96114.48
2019-05-21T19:08:52.974Z,96120.63
2019-05-21T19:12:55.162Z,96123.59
2019-05-21T19:16:57.065Z,96129.20
2019-05-21T19:20:58.972Z,96138.25
2019-05-21T19:25:01.582Z,96139.85
2019-05-21T19:29:07.394Z,96149.42
2019-05-21T19:33:08.255Z,96150.99
2019-05-21T19:37:10.153Z,96155.80
2019-05-21T19:41:12.181Z,96165.12
2019-05-21T19:45:16.987Z,96176.81
2019-05-21T19:49:19.053Z,96180.33
2019-05-21T19:53:22.842Z,96186.70
2019-05-21T19:57:26.607Z,96189.64
2019-05-21T20:01:29.232Z,96202.67
2019-05-21T20:05:31.509Z,96208.81
2019-05-21T20:09:33.453Z,96211.47
2019-05-21T20:13:35.367Z,96217.84
2019-05-21T20:17:38.782Z,96221.87
2019-05-21T20:21:41.482Z,96229.59
2019-05-21T20:25:56.010Z,96236.75
2019-05-21T20:29:48.004Z,96235.95
2019-05-21T20:33:50.183Z,96233.57
2019-05-21T20:37:52.557Z,96241.28
2019-05-21T20:41:55.147Z,96245.02
2019-05-21T20:45:57.906Z,96247.14
2019-05-21T20:50:00.169Z,96249.25
2019-05-21T20:54:04.857Z,96246.33
2019-05-21T20:58:08.676Z,96252.22
2019-05-21T21:02:11.731Z,96256.70
2019-05-21T21:06:14.558Z,96262.57
2019-05-21T21:10:17.522Z,96259.37
2019-05-21T21:14:20.986Z,96268.43
2019-05-21T21:18:22.910Z,96266.81
2019-05-21T21:22:25.844Z,96264.69
2019-05-21T21:26:29.083Z,96258.30
2019-05-21T21:30:32.753Z,96270.30
2019-05-21T21:34:34.853Z,96266.56
2019-05-21T21:38:37.617Z,96271.59
2019-05-21T21:42:41.101Z,96269.99
2019-05-21T21:46:42.974Z,96272.64
2019-05-21T21:50:45.339Z,96281.67
2019-05-21T21:54:47.857Z,96277.91
2019-05-21T21:58:50.447Z,96278.48
2019-05-21T22:02:52.599Z,96281.92
2019-05-21T22:06:55.926Z,96291.45
2019-05-21T22:10:58.267Z,96288.82
2019-05-21T22:15:00.815Z,96291.48
2019-05-21T22:19:02.806Z,96295.45
2019-05-21T22:23:05.726Z,96298.64
2019-05-21T22:27:08.298Z,96306.09
2019-05-21T22:31:10.437Z,96309.02
2019-05-21T22:35:13.346Z,96307.16
2019-05-21T22:39:19.938Z,96303.38
2019-05-21T22:43:22.134Z,96308.38
2019-05-21T22:47:24.047Z,96314.49
2019-05-21T22:51:26.180Z,96314.80
2019-05-21T22:55:28.110Z,96318.73
2019-05-21T22:59:30.097Z,96315.00
2019-05-21T23:03:32.523Z,96330.16
2019-05-21T23:07:35.317Z,96317.13
2019-05-21T23:11:37.580Z,96316.84
2019-05-21T23:15:39.677Z,96317.91
2019-05-21T23:20:02.304Z,96318.95
2019-05-21T23:24:08.389Z,96317.66
2019-05-21T23:28:10.587Z,96318.70
2019-05-21T23:32:12.832Z,96320.03
2019-05-21T23:36:15.539Z,96324.77
2019-05-21T23:40:17.702Z,96330.62
2019-05-21T23:44:20.591Z,96326.36
2019-05-21T23:48:23.048Z,96331.38
2019-05-21T23:52:26.105Z,96323.41
2019-05-21T23:56:28.026Z,96331.39
